createdAt,value
2023-05-14T00:01:21.929Z,8.90
2023-05-14T00:03:48.998Z,8.90
2023-05-14T00:06:16.237Z,8.50
2023-05-14T00:08:43.095Z,8.40
2023-05-14T00:11:10.151Z,8.30
2023-05-14T00:13:37.096Z,7.80
2023-05-14T00:16:04.261Z,9.70
2023-05-14T00:18:31.223Z,7.90
2023-05-14T00:20:58.141Z,9.20
2023-05-14T00:23:24.962Z,8.90
2023-05-14T00:25:51.850Z,8.70
2023-05-14T00:28:18.688Z,8.50
2023-05-14T00:30:45.577Z,8.20
2023-05-14T00:33:12.695Z,8.00
2023-05-14T00:35:39.563Z,8.10
2023-05-14T00:38:06.493Z,7.70
2023-05-14T00:40:33.333Z,7.10
2023-05-14T00:43:00.542Z,7.80
2023-05-14T00:45:27.536Z,7.20
2023-05-14T00:47:54.443Z,6.90
2023-05-14T00:50:22.519Z,7.00
2023-05-14T00:52:49.661Z,6.70
2023-05-14T00:55:16.750Z,6.20
2023-05-14T00:57:44.147Z,6.00
2023-05-14T01:00:11.637Z,6.50
2023-05-14T01:02:38.790Z,6.30
2023-05-14T01:05:06.142Z,5.40
2023-05-14T01:07:45.783Z,5.50
2023-05-14T01:10:17.028Z,5.20
2023-05-14T01:12:57.263Z,5.90
2023-05-14T01:15:25.444Z,5.90
2023-05-14T01:17:58.176Z,5.80
2023-05-14T01:20:29.204Z,5.40
2023-05-14T01:22:57.481Z,5.50
2023-05-14T01:25:24.377Z,6.00
2023-05-14T01:27:54.508Z,7.00
2023-05-14T01:30:46.658Z,6.60
2023-05-14T01:33:14.440Z,6.20
2023-05-14T01:35:41.777Z,6.10
2023-05-14T01:38:11.011Z,6.10
2023-05-14T01:40:38.218Z,5.40
2023-05-14T01:43:05.294Z,5.30
2023-05-14T01:45:35.117Z,5.60
2023-05-14T01:48:02.030Z,5.30
2023-05-14T01:50:29.421Z,5.40
2023-05-14T01:52:56.832Z,5.90
2023-05-14T01:55:24.746Z,6.20
2023-05-14T01:57:52.689Z,6.00
2023-05-14T02:00:20.525Z,5.30
2023-05-14T02:02:47.431Z,5.00
2023-05-14T02:05:14.322Z,5.50
2023-05-14T02:07:41.201Z,4.60
2023-05-14T02:10:09.752Z,5.00
2023-05-14T02:12:36.660Z,4.40
2023-05-14T02:15:09.079Z,4.80
2023-05-14T02:17:36.574Z,5.00
2023-05-14T02:20:04.494Z,5.00
2023-05-14T02:22:31.437Z,5.60
2023-05-14T02:24:58.707Z,5.00
2023-05-14T02:27:25.597Z,4.70
2023-05-14T02:29:53.005Z,5.10
2023-05-14T02:32:19.936Z,4.80
2023-05-14T02:34:46.907Z,4.50
2023-05-14T02:37:13.947Z,5.20
2023-05-14T02:39:40.742Z,4.30
2023-05-14T02:42:07.589Z,4.60
2023-05-14T02:44:34.610Z,4.10
2023-05-14T02:47:01.606Z,4.70
2023-05-14T02:49:28.610Z,4.50
2023-05-14T02:51:55.662Z,4.50
2023-05-14T02:54:22.521Z,5.10
2023-05-14T02:56:49.344Z,4.30
2023-05-14T02:59:16.218Z,4.40
2023-05-14T03:01:43.801Z,4.70
2023-05-14T03:04:11.354Z,5.70
2023-05-14T03:06:38.245Z,3.90
2023-05-14T03:09:05.112Z,4.60
2023-05-14T03:11:32.089Z,5.30
2023-05-14T03:13:59.002Z,4.70
2023-05-14T03:16:25.929Z,5.10
2023-05-14T03:18:52.912Z,4.90
2023-05-14T03:21:20.094Z,4.40
2023-05-14T03:23:47.050Z,5.10
2023-05-14T03:26:14.002Z,4.90
2023-05-14T03:28:41.051Z,4.80
2023-05-14T03:31:07.936Z,5.30
2023-05-14T03:33:34.867Z,5.20
2023-05-14T03:36:01.900Z,5.30
2023-05-14T03:38:28.850Z,5.20
2023-05-14T03:40:56.108Z,5.60
2023-05-14T03:43:23.055Z,7.10
2023-05-14T03:45:52.624Z,5.20
2023-05-14T03:48:20.293Z,4.80
2023-05-14T03:50:47.693Z,5.00
2023-05-14T03:53:14.647Z,4.90
2023-05-14T03:55:41.604Z,5.10
2023-05-14T03:58:14.413Z,4.70
2023-05-14T04:00:42.371Z,4.70
2023-05-14T04:03:11.230Z,4.40
2023-05-14T04:05:38.309Z,4.20
2023-05-14T04:08:06.074Z,4.20
2023-05-14T04:10:32.991Z,4.20
2023-05-14T04:13:00.588Z,4.60
2023-05-14T04:15:31.842Z,4.20
2023-05-14T04:17:58.917Z,3.70
2023-05-14T04:20:25.948Z,3.50
2023-05-14T04:22:54.119Z,4.00
2023-05-14T04:25:21.040Z,4.40
2023-05-14T04:27:47.877Z,4.20
2023-05-14T04:30:14.969Z,4.90
2023-05-14T04:32:41.931Z,5.00
2023-05-14T04:35:10.518Z,5.50
2023-05-14T04:37:37.460Z,4.60
2023-05-14T04:40:05.848Z,4.30
2023-05-14T04:42:32.720Z,4.90
2023-05-14T04:44:59.546Z,4.90
2023-05-14T04:47:26.769Z,3.70
2023-05-14T04:49:53.649Z,4.70
2023-05-14T04:52:20.485Z,4.30
2023-05-14T04:54:47.390Z,4.90
2023-05-14T04:57:14.309Z,4.70
2023-05-14T04:59:41.166Z,4.60
2023-05-14T05:02:08.094Z,4.10
2023-05-14T05:04:34.917Z,4.60
2023-05-14T05:07:01.798Z,3.90
2023-05-14T05:09:28.739Z,5.30
2023-05-14T05:11:55.586Z,4.50
2023-05-14T05:14:22.433Z,4.20
2023-05-14T05:16:49.288Z,4.80
2023-05-14T05:19:16.192Z,4.90
2023-05-14T05:21:43.192Z,4.20
2023-05-14T05:24:10.141Z,4.00
2023-05-14T05:26:37.084Z,3.70
2023-05-14T05:29:04.689Z,3.30
2023-05-14T05:31:31.964Z,3.90
2023-05-14T05:33:59.593Z,3.30
2023-05-14T05:36:26.473Z,3.50
2023-05-14T05:38:53.377Z,2.90
2023-05-14T05:41:20.731Z,3.10
2023-05-14T05:43:47.585Z,3.50
2023-05-14T05:46:14.441Z,3.20
2023-05-14T05:48:41.292Z,3.10
2023-05-14T05:51:08.226Z,3.30
2023-05-14T05:53:35.074Z,3.10
2023-05-14T05:56:01.891Z,3.30
2023-05-14T05:58:28.798Z,3.10
2023-05-14T06:00:57.776Z,3.70
2023-05-14T06:03:24.759Z,3.20
2023-05-14T06:05:52.810Z,3.20
2023-05-14T06:08:19.785Z,2.90
2023-05-14T06:10:47.607Z,2.90
2023-05-14T06:13:14.790Z,3.30
2023-05-14T06:15:41.668Z,2.60
2023-05-14T06:18:08.649Z,3.00
2023-05-14T06:20:35.627Z,3.30
2023-05-14T06:23:02.520Z,3.20
2023-05-14T06:25:29.430Z,3.60
2023-05-14T06:27:56.284Z,3.60
2023-05-14T06:30:23.469Z,3.60
2023-05-14T06:32:50.750Z,3.80
2023-05-14T06:35:19.169Z,3.40
2023-05-14T06:37:46.034Z,3.80
2023-05-14T06:40:15.765Z,3.00
2023-05-14T06:42:42.628Z,3.30
2023-05-14T06:45:10.148Z,3.00
2023-05-14T06:47:37.072Z,3.00
2023-05-14T06:50:04.360Z,3.20
2023-05-14T06:52:31.305Z,3.20
2023-05-14T06:54:58.153Z,3.30
2023-05-14T06:57:25.110Z,3.60
2023-05-14T06:59:52.265Z,3.80
2023-05-14T07:02:19.317Z,3.50
2023-05-14T07:04:46.687Z,3.50
2023-05-14T07:07:15.560Z,3.20
2023-05-14T07:09:42.867Z,3.30
2023-05-14T07:12:09.730Z,3.00
2023-05-14T07:14:36.623Z,3.20
2023-05-14T07:17:03.708Z,3.00
2023-05-14T07:19:30.627Z,2.60
2023-05-14T07:21:58.135Z,2.80
2023-05-14T07:24:24.988Z,2.90
2023-05-14T07:26:52.098Z,3.20
2023-05-14T07:29:19.046Z,3.20
2023-05-14T07:31:46.039Z,3.10
2023-05-14T07:34:13.169Z,3.40
2023-05-14T07:36:40.095Z,2.90
2023-05-14T07:39:07.066Z,3.00
2023-05-14T07:41:34.013Z,2.50
2023-05-14T07:44:01.180Z,2.60
2023-05-14T07:46:28.106Z,2.60
2023-05-14T07:48:55.158Z,2.70
2023-05-14T07:51:22.009Z,2.80
2023-05-14T07:53:48.928Z,2.60
2023-05-14T07:56:16.140Z,2.20
2023-05-14T07:58:43.183Z,2.50
2023-05-14T08:01:10.320Z,2.50
2023-05-14T08:03:37.223Z,3.10
2023-05-14T08:06:04.628Z,2.40
2023-05-14T08:08:31.429Z,2.20
2023-05-14T08:10:58.323Z,2.00
2023-05-14T08:13:25.485Z,2.00
2023-05-14T08:15:52.791Z,2.30
2023-05-14T08:18:19.710Z,2.30
2023-05-14T08:20:47.261Z,2.50
2023-05-14T08:23:14.214Z,2.00
2023-05-14T08:25:41.056Z,2.60
2023-05-14T08:28:08.280Z,2.30
2023-05-14T08:30:35.246Z,2.20
2023-05-14T08:33:02.351Z,2.20
2023-05-14T08:35:29.288Z,2.00
2023-05-14T08:37:57.351Z,2.30
2023-05-14T08:40:24.603Z,2.10
2023-05-14T08:42:51.721Z,2.40
2023-05-14T08:45:22.092Z,2.10
2023-05-14T08:47:53.000Z,2.00
2023-05-14T08:50:22.591Z,2.50
2023-05-14T08:52:50.337Z,2.70
2023-05-14T08:55:17.201Z,1.90
2023-05-14T08:57:44.042Z,2.10
2023-05-14T09:00:12.123Z,2.10
2023-05-14T09:02:42.520Z,1.80
2023-05-14T09:05:10.097Z,1.90
2023-05-14T09:07:36.960Z,2.00
2023-05-14T09:10:04.701Z,1.90
2023-05-14T09:12:31.603Z,2.10
2023-05-14T09:14:58.504Z,2.00
2023-05-14T09:17:26.594Z,2.00
2023-05-14T09:19:53.728Z,2.70
2023-05-14T09:22:20.672Z,2.00
2023-05-14T09:24:47.622Z,2.10
2023-05-14T09:27:21.721Z,2.10
2023-05-14T09:29:48.682Z,2.30
2023-05-14T09:32:15.648Z,2.00
2023-05-14T09:34:42.503Z,2.30
2023-05-14T09:37:10.246Z,2.20
2023-05-14T09:39:37.714Z,1.90
2023-05-14T09:42:05.177Z,1.60
2023-05-14T09:44:32.230Z,1.80
2023-05-14T09:46:59.348Z,1.60
2023-05-14T09:49:26.391Z,1.60
2023-05-14T09:51:53.422Z,2.00
2023-05-14T09:54:20.749Z,2.20
2023-05-14T09:56:47.712Z,1.90
2023-05-14T09:59:15.067Z,2.00
2023-05-14T10:01:42.870Z,2.10
2023-05-14T10:04:10.103Z,2.50
2023-05-14T10:06:37.963Z,2.30
2023-05-14T10:09:05.979Z,2.20
2023-05-14T10:11:37.998Z,1.90
2023-05-14T10:14:08.749Z,2.40
2023-05-14T10:16:38.318Z,1.90
2023-05-14T10:19:10.516Z,2.10
2023-05-14T10:21:38.916Z,2.00
2023-05-14T10:24:06.941Z,2.40
2023-05-14T10:26:37.925Z,1.80
2023-05-14T10:29:10.029Z,1.80
2023-05-14T10:31:47.232Z,2.40
2023-05-14T10:34:41.352Z,2.60
2023-05-14T10:37:15.594Z,2.30
2023-05-14T10:39:42.558Z,2.60
2023-05-14T10:42:12.526Z,2.80
2023-05-14T10:44:43.264Z,2.60
2023-05-14T10:47:10.218Z,3.30
2023-05-14T10:49:43.282Z,3.40
2023-05-14T10:52:11.872Z,2.50
2023-05-14T10:54:39.148Z,2.50
2023-05-14T10:57:11.264Z,2.40
2023-05-14T10:59:42.001Z,2.80
2023-05-14T11:02:32.715Z,1.90
2023-05-14T11:05:03.856Z,2.30
2023-05-14T11:07:35.449Z,2.00
2023-05-14T11:10:21.798Z,2.30
2023-05-14T11:15:26.316Z,1.80
2023-05-14T11:17:53.660Z,2.60
2023-05-14T11:20:20.824Z,2.10
2023-05-14T11:22:48.477Z,2.50
2023-05-14T11:25:15.578Z,2.30
2023-05-14T11:27:46.112Z,2.70
2023-05-14T11:30:15.313Z,2.80
2023-05-14T11:32:42.481Z,2.30
2023-05-14T11:35:09.979Z,2.50
2023-05-14T11:37:36.945Z,2.30
2023-05-14T11:40:09.960Z,2.70
2023-05-14T11:42:37.299Z,2.30
2023-05-14T11:45:05.376Z,2.70
2023-05-14T11:47:32.398Z,2.50
2023-05-14T11:50:00.149Z,2.20
2023-05-14T11:52:27.126Z,2.60
2023-05-14T11:54:54.086Z,2.20
2023-05-14T11:57:21.748Z,2.70
2023-05-14T11:59:49.742Z,2.20
2023-05-14T12:02:18.076Z,2.00
2023-05-14T12:04:45.617Z,2.60
2023-05-14T12:07:14.250Z,2.90
2023-05-14T12:09:49.886Z,2.30
2023-05-14T12:12:23.093Z,2.30
2023-05-14T12:14:50.149Z,2.30
2023-05-14T12:17:20.907Z,1.90
2023-05-14T12:19:49.175Z,2.20
2023-05-14T12:22:17.756Z,2.50
2023-05-14T12:24:52.464Z,2.30
2023-05-14T12:27:24.676Z,2.40
2023-05-14T12:30:19.248Z,2.10
2023-05-14T12:32:51.882Z,1.80
2023-05-14T12:35:19.370Z,1.90
2023-05-14T12:37:46.284Z,1.70
2023-05-14T12:40:13.424Z,2.10
2023-05-14T12:42:40.409Z,1.80
2023-05-14T12:45:08.832Z,1.90
2023-05-14T12:47:37.206Z,1.60
2023-05-14T12:50:04.993Z,2.10
2023-05-14T12:55:01.853Z,2.10
2023-05-14T12:57:30.045Z,2.10
2023-05-14T12:59:57.172Z,2.00
2023-05-14T13:02:24.135Z,2.10
2023-05-14T13:04:50.956Z,2.30
2023-05-14T13:07:17.917Z,2.00
2023-05-14T13:09:44.800Z,2.00
2023-05-14T13:12:11.672Z,2.60
2023-05-14T13:14:38.567Z,2.10
2023-05-14T13:17:06.093Z,2.40
2023-05-14T13:19:33.139Z,2.10
2023-05-14T13:22:00.054Z,2.20
2023-05-14T13:24:27.087Z,2.00
2023-05-14T13:26:53.934Z,2.90
2023-05-14T13:29:21.146Z,2.50
2023-05-14T13:31:48.140Z,2.30
2023-05-14T13:34:15.089Z,2.20
2023-05-14T13:36:43.642Z,2.30
2023-05-14T13:39:13.645Z,2.50
2023-05-14T13:41:41.574Z,2.70
2023-05-14T13:44:08.528Z,2.50
2023-05-14T13:46:35.423Z,2.20
2023-05-14T13:49:02.395Z,2.30
2023-05-14T13:51:29.232Z,2.70
2023-05-14T13:53:56.405Z,2.70
2023-05-14T13:56:23.731Z,2.40
2023-05-14T13:58:50.740Z,2.50
2023-05-14T14:01:17.709Z,2.40
2023-05-14T14:03:44.514Z,2.30
2023-05-14T14:06:12.101Z,2.60
2023-05-14T14:08:38.986Z,2.10
2023-05-14T14:11:05.874Z,2.60
2023-05-14T14:13:32.699Z,2.20
2023-05-14T14:15:59.630Z,2.00
2023-05-14T14:18:26.947Z,2.10
2023-05-14T14:20:54.004Z,2.80
2023-05-14T14:23:21.478Z,2.50
2023-05-14T14:25:48.365Z,2.60
2023-05-14T14:28:15.248Z,2.20
2023-05-14T14:30:43.879Z,1.90
2023-05-14T14:33:11.471Z,2.10
2023-05-14T14:35:38.689Z,2.00
2023-05-14T14:38:05.937Z,2.50
2023-05-14T14:40:34.000Z,1.80
2023-05-14T14:43:02.250Z,2.10
2023-05-14T14:45:29.248Z,1.90
2023-05-14T14:48:28.752Z,2.00
2023-05-14T14:50:55.918Z,1.80
2023-05-14T14:53:23.024Z,2.00
2023-05-14T14:55:50.116Z,1.70
2023-05-14T14:58:18.493Z,2.00
2023-05-14T15:00:45.816Z,2.00
2023-05-14T15:03:13.037Z,2.20
2023-05-14T15:05:40.053Z,2.10
2023-05-14T15:08:06.921Z,2.70
2023-05-14T15:10:38.135Z,2.30
2023-05-14T15:13:06.228Z,2.60
2023-05-14T15:15:33.773Z,2.30
2023-05-14T15:18:00.965Z,2.40
2023-05-14T15:20:27.925Z,2.60
2023-05-14T15:22:55.168Z,2.60
2023-05-14T15:25:22.871Z,2.80
2023-05-14T15:27:50.338Z,2.50
2023-05-14T15:30:17.196Z,2.70
2023-05-14T15:32:44.941Z,2.90
2023-05-14T15:35:11.871Z,2.70
2023-05-14T15:37:40.141Z,2.80
2023-05-14T15:40:10.606Z,3.00
2023-05-14T15:42:42.218Z,3.40
2023-05-14T15:45:10.617Z,3.00
2023-05-14T15:47:37.774Z,3.60
2023-05-14T15:50:05.479Z,3.80
2023-05-14T15:52:32.389Z,3.50
2023-05-14T15:54:59.848Z,3.20
2023-05-14T15:57:27.633Z,3.60
2023-05-14T15:59:54.767Z,3.70
2023-05-14T16:02:21.615Z,3.60
2023-05-14T16:04:49.796Z,3.10
2023-05-14T16:07:16.659Z,3.50
2023-05-14T16:09:43.692Z,3.40
2023-05-14T16:12:10.845Z,3.40
2023-05-14T16:14:38.576Z,3.00
2023-05-14T16:17:06.389Z,3.10
2023-05-14T16:19:33.239Z,3.60
2023-05-14T16:22:00.178Z,3.30
2023-05-14T16:24:27.138Z,3.10
2023-05-14T16:26:54.324Z,3.50
2023-05-14T16:29:21.243Z,3.50
2023-05-14T16:31:48.224Z,4.20
2023-05-14T16:34:15.272Z,4.20
2023-05-14T16:36:42.194Z,4.60
2023-05-14T16:39:09.139Z,5.50
2023-05-14T16:41:36.210Z,6.00
2023-05-14T16:44:03.658Z,6.60
2023-05-14T16:46:31.396Z,6.20
2023-05-14T16:48:58.368Z,5.70
2023-05-14T16:51:25.335Z,6.30
2023-05-14T16:53:52.250Z,5.90
2023-05-14T16:56:19.279Z,6.40
2023-05-14T16:58:46.101Z,6.40
2023-05-14T17:01:13.087Z,7.00
2023-05-14T17:03:40.072Z,8.30
2023-05-14T17:06:07.342Z,8.70
2023-05-14T17:08:35.715Z,8.30
2023-05-14T17:11:05.891Z,7.50
2023-05-14T17:13:33.463Z,8.20
2023-05-14T17:16:00.951Z,7.10
2023-05-14T17:18:28.446Z,8.20
2023-05-14T17:20:55.415Z,8.20
2023-05-14T17:23:22.267Z,7.90
2023-05-14T17:25:49.172Z,6.80
2023-05-14T17:28:16.049Z,6.40
2023-05-14T17:30:42.891Z,5.90
2023-05-14T17:33:09.913Z,5.40
2023-05-14T17:35:37.406Z,4.90
2023-05-14T17:38:04.337Z,4.80
2023-05-14T17:40:31.214Z,5.20
2023-05-14T17:42:58.096Z,6.00
2023-05-14T17:45:25.381Z,7.40
2023-05-14T17:47:52.575Z,6.70
2023-05-14T17:50:19.711Z,6.30
2023-05-14T17:52:47.695Z,6.50
2023-05-14T17:55:14.730Z,5.50
2023-05-14T17:57:42.227Z,4.80
2023-05-14T18:00:09.853Z,3.90
2023-05-14T18:02:39.631Z,4.90
2023-05-14T18:05:07.256Z,3.70
2023-05-14T18:07:34.824Z,3.90
2023-05-14T18:10:01.702Z,3.60
2023-05-14T18:12:29.439Z,3.90
2023-05-14T18:14:56.286Z,4.10
2023-05-14T18:17:23.134Z,4.50
2023-05-14T18:19:49.999Z,4.40
2023-05-14T18:22:16.879Z,3.30
2023-05-14T18:24:44.548Z,3.10
2023-05-14T18:27:11.572Z,3.10
2023-05-14T18:29:38.510Z,3.40
2023-05-14T18:32:06.379Z,2.70
2023-05-14T18:34:33.262Z,3.30
2023-05-14T18:37:00.196Z,2.90
2023-05-14T18:39:27.026Z,3.00
2023-05-14T18:41:55.114Z,3.30
2023-05-14T18:44:22.876Z,2.90
2023-05-14T18:46:49.863Z,2.50
2023-05-14T18:49:16.781Z,2.60
2023-05-14T18:51:43.700Z,2.60
2023-05-14T18:54:10.526Z,2.30
2023-05-14T18:56:37.418Z,3.30
2023-05-14T18:59:04.547Z,2.40
2023-05-14T19:01:31.678Z,3.10
2023-05-14T19:03:58.785Z,2.80
2023-05-14T19:06:25.838Z,2.90
2023-05-14T19:08:52.796Z,3.80
2023-05-14T19:11:19.732Z,3.00
2023-05-14T19:13:48.017Z,3.00
2023-05-14T19:16:15.117Z,2.70
2023-05-14T19:18:42.041Z,2.50
2023-05-14T19:21:08.974Z,2.90
2023-05-14T19:23:35.790Z,3.10
2023-05-14T19:26:02.775Z,3.50
2023-05-14T19:28:29.637Z,2.80
2023-05-14T19:30:57.367Z,2.90
2023-05-14T19:33:24.540Z,2.60
2023-05-14T19:35:52.202Z,2.90
2023-05-14T19:38:19.876Z,2.70
2023-05-14T19:40:46.768Z,2.90
2023-05-14T19:43:13.671Z,3.20
2023-05-14T19:45:42.814Z,5.00
2023-05-14T19:48:09.884Z,3.30
2023-05-14T19:50:39.746Z,2.90
2023-05-14T19:53:06.935Z,3.00
2023-05-14T19:55:33.948Z,3.20
2023-05-14T19:58:01.023Z,3.00
2023-05-14T20:00:28.122Z,3.90
2023-05-14T20:02:55.584Z,2.90
2023-05-14T20:05:22.616Z,2.90
2023-05-14T20:07:50.062Z,2.90
2023-05-14T20:10:16.951Z,3.00
2023-05-14T20:12:43.829Z,3.50
2023-05-14T20:15:11.114Z,3.50
2023-05-14T20:17:41.562Z,3.10
2023-05-14T20:20:10.216Z,3.80
2023-05-14T20:22:38.509Z,4.20
2023-05-14T20:25:07.095Z,3.60
2023-05-14T20:27:34.048Z,3.60
2023-05-14T20:30:01.182Z,2.70
2023-05-14T20:32:28.174Z,3.10
2023-05-14T20:34:55.122Z,3.30
2023-05-14T20:37:22.243Z,3.60
2023-05-14T20:39:49.143Z,4.70
2023-05-14T20:42:16.145Z,9.20
2023-05-14T20:44:43.033Z,7.30
2023-05-14T20:47:09.873Z,4.10
2023-05-14T20:49:36.670Z,4.50
2023-05-14T20:52:04.559Z,7.40
2023-05-14T20:54:31.404Z,5.50
2023-05-14T20:56:58.262Z,4.30
2023-05-14T20:59:25.105Z,4.10
2023-05-14T21:01:52.100Z,4.70
2023-05-14T21:04:19.250Z,3.90
2023-05-14T21:06:46.474Z,3.70
2023-05-14T21:09:13.342Z,3.30
2023-05-14T21:11:40.261Z,4.20
2023-05-14T21:14:07.119Z,3.70
2023-05-14T21:16:34.117Z,4.00
2023-05-14T21:19:01.107Z,3.70
2023-05-14T21:21:28.088Z,3.20
2023-05-14T21:23:55.017Z,3.80
2023-05-14T21:26:22.484Z,3.60
2023-05-14T21:28:49.534Z,3.60
2023-05-14T21:31:16.525Z,3.70
2023-05-14T21:33:43.539Z,3.60
2023-05-14T21:36:10.409Z,3.90
2023-05-14T21:38:37.264Z,3.20
2023-05-14T21:41:04.494Z,3.60
2023-05-14T21:43:31.346Z,3.50
2023-05-14T21:45:58.187Z,3.90
2023-05-14T21:48:25.222Z,3.90
2023-05-14T21:50:52.176Z,3.70
2023-05-14T21:53:19.045Z,3.50
2023-05-14T21:55:45.875Z,4.40
2023-05-14T21:58:12.681Z,4.60
2023-05-14T22:00:39.586Z,4.10
2023-05-14T22:03:06.535Z,3.50
2023-05-14T22:05:33.593Z,3.80
2023-05-14T22:08:00.415Z,4.30
2023-05-14T22:10:27.386Z,3.80
2023-05-14T22:12:54.198Z,3.90
2023-05-14T22:15:21.092Z,4.00
2023-05-14T22:17:48.300Z,3.70
2023-05-14T22:20:15.393Z,3.90
2023-05-14T22:22:42.241Z,3.70
2023-05-14T22:25:09.708Z,4.00
2023-05-14T22:27:36.533Z,5.00
2023-05-14T22:30:03.836Z,4.80
2023-05-14T22:32:30.787Z,4.90
2023-05-14T22:34:57.629Z,5.50
2023-05-14T22:37:24.554Z,5.70
2023-05-14T22:39:51.398Z,7.00
2023-05-14T22:42:20.464Z,7.20
2023-05-14T22:44:47.582Z,8.40
2023-05-14T22:47:14.437Z,8.00
2023-05-14T22:49:41.674Z,8.80
2023-05-14T22:52:08.730Z,9.20
2023-05-14T22:54:36.521Z,8.30
2023-05-14T22:57:03.952Z,8.00
2023-05-14T22:59:30.941Z,8.60
2023-05-14T23:01:57.840Z,8.60
2023-05-14T23:04:24.957Z,9.40
2023-05-14T23:06:51.802Z,9.00
2023-05-14T23:09:19.129Z,9.00
2023-05-14T23:11:46.293Z,9.00
2023-05-14T23:14:13.136Z,8.60
2023-05-14T23:16:39.966Z,9.10
2023-05-14T23:19:07.001Z,9.60
2023-05-14T23:21:34.103Z,9.00
2023-05-14T23:24:01.147Z,10.50
2023-05-14T23:26:28.042Z,10.70
2023-05-14T23:28:54.875Z,12.30
2023-05-14T23:31:21.707Z,12.50
2023-05-14T23:33:48.823Z,11.60
2023-05-14T23:36:15.773Z,12.50
2023-05-14T23:38:42.924Z,11.70
2023-05-14T23:41:09.763Z,11.70
2023-05-14T23:43:36.868Z,11.30
2023-05-14T23:46:04.131Z,10.00
2023-05-14T23:48:31.342Z,9.70
2023-05-14T23:50:58.163Z,10.50
2023-05-14T23:53:25.041Z,10.80
2023-05-14T23:55:51.902Z,13.80
2023-05-14T23:58:18.727Z,11.30
